Time;durP1;ratioP1;P1;durP2;ratioP2;P2;SDS_P1;SDS_P2;PMS_P1;PMS_P2;Temp;Humidity;BMP_temperature;BMP_pressure;BME280_temperature;BME280_humidity;BME280_pressure;Samples;Min_cycle;Max_cycle;Signal;HPM_P1;HPM_P2
2021/11/15 00:01:13;;;;;;;71.50;37.10;;;;;;;5.62;80.76;101469.64;103125;1317;139065;-67
2021/11/15 00:03:48;;;;;;;71.10;35.40;;;;;;;5.60;80.99;101466.17;104698;1314;107929;-68
2021/11/15 00:06:20;;;;;;;69.60;36.50;;;;;;;5.63;80.81;101472.74;103849;1315;97942;-68
2021/11/15 00:08:52;;;;;;;67.30;33.60;;;;;;;5.63;80.86;101472.39;103214;1318;137917;-68
2021/11/15 00:11:26;;;;;;;62.60;33.10;;;;;;;5.63;80.81;101472.74;103331;1319;111432;-68
2021/11/15 00:13:59;;;;;;;58.60;31.70;;;;;;;5.63;80.86;101474.65;103179;1315;138858;-68
2021/11/15 00:16:31;;;;;;;66.90;32.60;;;;;;;5.66;80.93;101478.81;103312;1316;108726;-68
2021/11/15 00:19:04;;;;;;;53.70;29.90;;;;;;;5.67;80.89;101480.55;103198;1315;139475;-68
2021/11/15 00:21:36;;;;;;;52.30;28.40;;;;;;;5.68;80.81;101483.30;103215;1315;98009;-68
2021/11/15 00:24:09;;;;;;;51.10;28.80;;;;;;;5.69;80.77;101486.94;103335;1315;111337;-67
2021/11/15 00:26:41;;;;;;;56.10;30.80;;;;;;;5.65;80.74;101485.01;103123;1317;138867;-67
2021/11/15 00:29:14;;;;;;;58.30;30.50;;;;;;;5.61;81.15;101487.92;103241;1314;108873;-67
2021/11/15 00:31:46;;;;;;;56.30;30.10;;;;;;;5.58;80.91;101489.45;103186;1315;139645;-68
2021/11/15 00:34:18;;;;;;;50.40;28.50;;;;;;;5.54;80.84;101495.09;103982;1318;96643;-68
2021/11/15 00:36:51;;;;;;;54.00;28.90;;;;;;;5.51;80.96;101494.04;103397;1318;139075;-68
2021/11/15 00:39:23;;;;;;;50.40;28.40;;;;;;;5.51;81.09;101492.83;103179;1315;108954;-67
2021/11/15 00:41:55;;;;;;;53.50;28.70;;;;;;;5.54;81.35;101495.26;103262;1319;108809;-67
2021/11/15 00:44:28;;;;;;;53.80;29.60;;;;;;;5.58;81.52;101493.41;103199;1317;138137;-67
2021/11/15 00:47:00;;;;;;;52.70;29.20;;;;;;;5.59;81.34;101495.15;103296;1314;98181;-67
2021/11/15 00:49:33;;;;;;;51.20;27.40;;;;;;;5.56;81.17;101495.27;103158;1313;138009;-68
2021/11/15 00:52:06;;;;;;;50.90;26.90;;;;;;;5.53;81.32;101498.36;103191;1313;109001;-68
2021/11/15 00:54:38;;;;;;;47.70;26.50;;;;;;;5.53;81.37;101504.40;103230;1318;140833;-68
2021/11/15 00:57:10;;;;;;;44.60;24.80;;;;;;;5.54;81.62;101502.34;103270;1318;97880;-67
2021/11/15 00:59:42;;;;;;;44.30;25.20;;;;;;;5.57;81.63;101498.23;103253;1316;97832;-66
2021/11/15 01:02:16;;;;;;;45.60;25.70;;;;;;;5.59;81.80;101498.61;103187;1315;138099;-68
2021/11/15 01:04:48;;;;;;;43.80;25.70;;;;;;;5.62;81.66;101497.59;103221;1317;107837;-66
2021/11/15 01:07:20;;;;;;;42.90;24.50;;;;;;;5.62;81.63;101499.83;103118;1313;138219;-68
2021/11/15 01:09:53;;;;;;;41.60;23.30;;;;;;;5.59;81.67;101504.48;103261;1318;96459;-67
2021/11/15 01:12:25;;;;;;;38.60;21.10;;;;;;;5.56;81.64;101505.98;103288;1315;98339;-68
2021/11/15 01:14:57;;;;;;;34.90;19.60;;;;;;;5.54;81.77;101504.75;103104;1314;138569;-67
2021/11/15 01:17:29;;;;;;;33.80;18.90;;;;;;;5.53;81.70;101507.16;103200;1319;109335;-68
2021/11/15 01:20:02;;;;;;;31.60;19.30;;;;;;;5.54;81.76;101504.58;103079;1315;138654;-67
2021/11/15 01:22:34;;;;;;;33.90;19.80;;;;;;;5.54;81.88;101503.55;103221;1315;97921;-67
2021/11/15 01:25:10;;;;;;;33.40;18.90;;;;;;;5.53;81.80;101501.13;102985;1315;162227;-67
2021/11/15 01:27:42;;;;;;;36.10;19.90;;;;;;;5.53;82.02;101500.26;103245;1314;112887;-67
2021/11/15 01:30:17;;;;;;;29.20;17.70;;;;;;;5.49;81.76;101502.83;103128;1315;109838;-67
2021/11/15 01:32:50;;;;;;;28.30;17.30;;;;;;;5.43;81.89;101503.48;103126;1314;139342;-67
2021/11/15 01:35:24;;;;;;;25.40;15.60;;;;;;;5.40;82.12;101506.20;103185;1314;97942;-67
2021/11/15 01:37:57;;;;;;;28.40;15.90;;;;;;;5.38;82.12;101508.06;103102;1313;138670;-67
2021/11/15 01:40:31;;;;;;;24.70;15.70;;;;;;;5.38;82.34;101511.17;103235;1317;113005;-67
2021/11/15 01:43:04;;;;;;;25.20;15.30;;;;;;;5.36;82.07;101512.70;103119;1313;138683;-67
2021/11/15 01:45:39;;;;;;;23.40;14.60;;;;;;;5.34;82.36;101513.72;103244;1314;109047;-67
2021/11/15 01:48:13;;;;;;;25.30;15.60;;;;;;;5.31;82.46;101514.39;103248;1318;97860;-67
2021/11/15 01:50:45;;;;;;;25.60;15.90;;;;;;;5.27;82.68;101514.70;103207;1314;137971;-67
2021/11/15 01:53:18;;;;;;;21.70;14.20;;;;;;;5.26;82.68;101514.34;103114;1317;111510;-67
2021/11/15 01:55:51;;;;;;;23.50;14.40;;;;;;;5.21;82.69;101511.53;103114;1315;138870;-66
2021/11/15 01:58:25;;;;;;;21.40;13.60;;;;;;;5.19;82.75;101511.84;103196;1318;110377;-67
2021/11/15 02:00:59;;;;;;;20.50;12.90;;;;;;;5.20;82.84;101508.23;103163;1314;138953;-67
2021/11/15 02:03:33;;;;;;;21.50;13.40;;;;;;;5.23;82.97;101507.60;103323;1314;97865;-67
2021/11/15 02:06:06;;;;;;;22.90;13.90;;;;;;;5.27;83.29;101514.87;103433;1313;111547;-67
2021/11/15 02:08:39;;;;;;;20.60;13.30;;;;;;;5.30;83.18;101514.55;103387;1319;138104;-68
2021/11/15 02:11:11;;;;;;;22.50;14.00;;;;;;;5.31;83.11;101517.49;103382;1314;108453;-68
2021/11/15 02:13:44;;;;;;;25.30;14.30;;;;;;;5.30;83.10;101517.66;103232;1318;138853;-67
2021/11/15 02:16:17;;;;;;;24.50;14.10;;;;;;;5.31;83.00;101521.98;103294;1314;97822;-67
2021/11/15 02:18:49;;;;;;;21.70;13.30;;;;;;;5.31;82.99;101519.39;103194;1313;139291;-67
2021/11/15 02:21:22;;;;;;;22.70;13.40;;;;;;;5.31;83.11;101520.42;103307;1312;108963;-68
2021/11/15 02:23:55;;;;;;;23.90;14.50;;;;;;;5.32;83.14;101518.70;104558;1314;106737;-68
2021/11/15 02:26:27;;;;;;;23.90;14.60;;;;;;;5.31;83.08;101521.29;103315;1313;138109;-67
2021/11/15 02:28:59;;;;;;;26.70;14.30;;;;;;;5.27;83.07;101517.29;103339;1313;98006;-67
2021/11/15 02:31:31;;;;;;;27.00;14.90;;;;;;;5.24;82.93;101519.85;103344;1313;138685;-67
2021/11/15 02:34:04;;;;;;;23.60;13.50;;;;;;;5.24;83.04;101519.15;103413;1313;108858;-67
2021/11/15 02:36:38;;;;;;;25.20;14.70;;;;;;;5.28;83.13;101519.88;103037;1314;138991;-68
2021/11/15 02:39:10;;;;;;;24.60;14.30;;;;;;;5.31;83.10;101522.66;104770;1313;96885;-67
2021/11/15 02:41:43;;;;;;;26.60;14.20;;;;;;;5.33;83.33;101523.71;104771;1310;96261;-68
2021/11/15 02:44:16;;;;;;;31.60;16.10;;;;;;;5.33;83.20;101527.16;103710;1317;138041;-67
2021/11/15 02:46:48;;;;;;;29.80;16.60;;;;;;;5.29;83.23;101530.93;103244;1312;108983;-67
2021/11/15 02:49:21;;;;;;;29.70;16.00;;;;;;;5.27;83.07;101534.02;103137;1312;138216;-67
2021/11/15 02:51:53;;;;;;;28.10;14.90;;;;;;;5.23;83.38;101534.50;103210;1314;97847;-67
2021/11/15 02:54:25;;;;;;;28.90;14.90;;;;;;;5.17;83.26;101532.86;103237;1313;97864;-67
2021/11/15 02:56:57;;;;;;;34.50;15.80;;;;;;;5.15;83.36;101538.36;103230;1314;138433;-67
2021/11/15 02:59:29;;;;;;;31.60;15.80;;;;;;;5.14;83.74;101536.98;103331;1313;108840;-67
2021/11/15 03:02:03;;;;;;;36.80;16.30;;;;;;;5.15;83.74;101533.36;103355;1302;138834;-68
2021/11/15 03:04:35;;;;;;;41.30;18.50;;;;;;;5.16;83.67;101531.98;104682;1313;96185;-68
2021/11/15 03:07:08;;;;;;;39.40;18.70;;;;;;;5.16;83.80;101534.23;103903;1314;139172;-68
2021/11/15 03:09:41;;;;;;;39.40;17.90;;;;;;;5.11;83.80;101534.36;103215;1314;112580;-66
2021/11/15 03:12:14;;;;;;;42.70;18.30;;;;;;;5.07;83.92;101538.46;104628;1316;108995;-68
2021/11/15 03:14:46;;;;;;;36.30;17.40;;;;;;;5.06;83.99;101544.83;103178;1314;139140;-67
2021/11/15 03:17:18;;;;;;;35.60;17.10;;;;;;;5.06;84.09;101545.52;103194;1317;97895;-68
2021/11/15 03:19:50;;;;;;;37.90;18.00;;;;;;;5.05;84.30;101550.85;103157;1313;139159;-68
2021/11/15 03:22:25;;;;;;;40.90;18.50;;;;;;;5.03;84.07;101549.10;103205;1315;112529;-67
2021/11/15 03:24:57;;;;;;;45.20;19.50;;;;;;;5.04;84.22;101548.43;103049;1316;138593;-67
2021/11/15 03:27:35;;;;;;;45.70;20.50;;;;;;;5.02;84.38;101547.88;103058;1317;107871;-68
2021/11/15 03:30:10;;;;;;;47.10;20.30;;;;;;;4.97;84.36;101554.53;103282;1314;97944;-67
2021/11/15 03:32:46;;;;;;;42.80;20.50;;;;;;;4.91;84.63;101552.06;103155;1315;138742;-67
2021/11/15 03:35:19;;;;;;;45.30;20.00;;;;;;;4.86;84.66;101552.70;103144;1316;111404;-67
2021/11/15 03:37:52;;;;;;;41.60;18.90;;;;;;;4.87;84.72;101550.81;103075;1314;138811;-67
2021/11/15 03:40:27;;;;;;;41.40;19.70;;;;;;;4.90;85.02;101549.29;103120;1316;108875;-67
2021/11/15 03:43:02;;;;;;;41.10;19.60;;;;;;;4.90;85.29;101554.11;103083;1316;139079;-68
2021/11/15 03:45:36;;;;;;;47.30;21.30;;;;;;;4.88;85.18;101553.41;103213;1316;97908;-67
2021/11/15 03:48:10;;;;;;;51.10;22.70;;;;;;;4.85;85.26;101551.14;103165;1314;112874;-68
2021/11/15 03:50:43;;;;;;;52.00;21.70;;;;;;;4.85;85.28;101550.78;103095;1313;139008;-68
2021/11/15 03:53:17;;;;;;;51.10;21.90;;;;;;;4.84;85.03;101554.73;103062;1315;107936;-67
2021/11/15 03:55:49;;;;;;;53.00;23.40;;;;;;;4.84;85.49;101556.63;103063;1314;140549;-68
2021/11/15 03:58:21;;;;;;;47.70;22.80;;;;;;;4.86;85.41;101554.59;103280;1313;97984;-67
2021/11/15 04:00:54;;;;;;;49.60;22.60;;;;;;;4.88;85.27;101558.41;103072;1315;139198;-68
2021/11/15 04:03:31;;;;;;;47.80;22.30;;;;;;;4.89;85.17;101561.01;103084;1316;108994;-68
2021/11/15 04:06:09;;;;;;;48.00;21.60;;;;;;;4.91;85.44;101561.53;103096;1317;108942;-68
2021/11/15 04:08:40;;;;;;;;;;;;;;;4.92;85.27;101563.27;103043;1316;138548;-67
2021/11/15 04:11:11;;;;;;;56.30;23.80;;;;;;;4.92;85.22;101563.96;103150;1316;97848;-67
2021/11/15 04:13:44;;;;;;;58.10;23.40;;;;;;;4.91;85.26;101569.46;103047;1314;137962;-67
2021/11/15 04:16:18;;;;;;;53.10;23.40;;;;;;;4.88;85.42;101569.60;103173;1315;109034;-67
2021/11/15 04:18:53;;;;;;;48.40;22.10;;;;;;;4.82;85.27;101571.59;103015;1315;139342;-67
2021/11/15 04:21:27;;;;;;;52.00;23.30;;;;;;;4.83;85.31;101570.73;103107;1315;97928;-67
2021/11/15 04:23:59;;;;;;;51.20;21.80;;;;;;;4.83;85.56;101569.52;103161;1315;97993;-68
2021/11/15 04:26:31;;;;;;;49.10;22.60;;;;;;;4.82;85.62;101568.65;103051;1315;139202;-67
2021/11/15 04:29:04;;;;;;;50.50;23.40;;;;;;;4.80;85.57;101568.12;103115;1316;108915;-67
2021/11/15 04:31:36;;;;;;;51.20;23.30;;;;;;;4.79;85.60;101565.70;103026;1316;138582;-68
2021/11/15 04:34:08;;;;;;;51.50;23.70;;;;;;;4.77;85.61;101563.09;103137;1316;97896;-67
2021/11/15 04:36:41;;;;;;;55.10;23.60;;;;;;;4.72;85.82;101566.30;103005;1315;142118;-68
2021/11/15 04:39:13;;;;;;;50.30;22.50;;;;;;;4.70;85.79;101570.42;103096;1316;112198;-67
2021/11/15 04:41:46;;;;;;;52.80;23.20;;;;;;;4.71;86.03;101573.19;103122;1315;107977;-67
2021/11/15 04:44:17;;;;;;;57.00;24.60;;;;;;;4.71;86.07;101573.54;103064;1313;138934;-68
2021/11/15 04:46:50;;;;;;;50.50;22.80;;;;;;;4.74;86.17;101575.98;103055;1316;97892;-67
2021/11/15 04:49:22;;;;;;;59.60;26.70;;;;;;;4.77;85.99;101575.66;103460;1308;138487;-67
2021/11/15 04:51:55;;;;;;;58.30;25.80;;;;;;;4.78;85.94;101575.16;103583;1314;112059;-67
2021/11/15 04:54:28;;;;;;;67.90;26.00;;;;;;;4.79;86.01;101576.73;103150;1315;108457;-67
2021/11/15 04:57:00;;;;;;;59.10;26.00;;;;;;;4.79;85.65;101577.06;103037;1315;137974;-68
2021/11/15 04:59:32;;;;;;;57.90;25.50;;;;;;;4.78;85.76;101578.61;103197;1315;97916;-67
2021/11/15 05:02:05;;;;;;;51.90;24.90;;;;;;;4.77;85.71;101581.70;103034;1316;138788;-68
2021/11/15 05:04:37;;;;;;;54.30;24.90;;;;;;;4.77;85.84;101583.59;103152;1313;112515;-67
2021/11/15 05:07:09;;;;;;;50.80;23.90;;;;;;;4.78;85.92;101584.81;103076;1313;139508;-68
2021/11/15 05:09:41;;;;;;;55.20;25.60;;;;;;;4.78;86.01;101591.52;103233;1313;109232;-68
2021/11/15 05:12:17;;;;;;;47.80;23.50;;;;;;;4.76;85.78;101601.15;103203;1313;97877;-68
2021/11/15 05:14:49;;;;;;;56.70;26.70;;;;;;;4.76;85.94;101598.05;103063;1314;137972;-67
2021/11/15 05:17:24;;;;;;;66.20;28.20;;;;;;;4.76;85.93;101599.95;103237;1317;110836;-68
2021/11/15 05:19:56;;;;;;;67.70;28.20;;;;;;;4.75;86.14;101599.59;103190;1313;138427;-68
2021/11/15 05:22:28;;;;;;;73.70;30.00;;;;;;;4.71;86.06;101599.89;103216;1313;108560;-67
2021/11/15 05:25:00;;;;;;;69.90;30.70;;;;;;;4.68;86.05;101603.65;103080;1314;139858;-68
2021/11/15 05:27:32;;;;;;;74.40;30.60;;;;;;;4.68;86.08;101603.64;103045;1315;97975;-67
2021/11/15 05:30:05;;;;;;;73.30;31.20;;;;;;;4.68;86.36;101604.16;103211;1314;112524;-67
2021/11/15 05:32:37;;;;;;;81.10;32.10;;;;;;;4.68;86.27;101610.02;103127;1313;139459;-67
2021/11/15 05:35:10;;;;;;;76.00;33.90;;;;;;;4.68;86.42;101610.88;103205;1314;107968;-67
2021/11/15 05:37:43;;;;;;;92.00;35.60;;;;;;;4.68;86.55;101614.84;103089;1313;138205;-67
2021/11/15 05:40:16;;;;;;;81.40;35.40;;;;;;;4.67;86.23;101619.29;103140;1313;98006;-67
2021/11/15 05:42:54;;;;;;;88.60;34.50;;;;;;;4.66;86.25;101625.64;104532;1313;138691;-67
2021/11/15 05:45:28;;;;;;;85.30;35.60;;;;;;;4.64;86.40;101625.97;103538;1313;107806;-67
2021/11/15 05:48:00;;;;;;;84.30;34.30;;;;;;;4.64;86.18;101632.50;103244;1317;109005;-67
2021/11/15 05:50:32;;;;;;;86.10;35.30;;;;;;;4.66;86.30;101637.37;103109;1314;139069;-68
2021/11/15 05:53:04;;;;;;;87.10;36.00;;;;;;;4.69;86.30;101639.32;103243;1313;97920;-67
2021/11/15 05:55:36;;;;;;;92.50;36.80;;;;;;;4.71;86.37;101642.80;103098;1317;138123;-67
2021/11/15 05:58:09;;;;;;;93.10;37.70;;;;;;;4.71;86.19;101641.23;103158;1314;108119;-67
2021/11/15 06:00:42;;;;;;;95.60;38.90;;;;;;;4.68;86.00;101644.13;103114;1313;139818;-68
2021/11/15 06:03:15;;;;;;;90.80;36.50;;;;;;;4.64;86.11;101645.77;103142;1313;98268;-68
2021/11/15 06:05:47;;;;;;;100.30;38.50;;;;;;;4.61;85.85;101652.63;103279;1313;97953;-67
2021/11/15 06:08:20;;;;;;;90.40;36.80;;;;;;;4.62;86.20;101660.20;103121;1317;138759;-67
2021/11/15 06:10:53;;;;;;;86.40;36.40;;;;;;;4.64;85.83;101663.52;103247;1314;108993;-68
2021/11/15 06:13:25;;;;;;;87.70;37.30;;;;;;;4.63;85.91;101665.22;103123;1313;138377;-68
2021/11/15 06:15:57;;;;;;;92.50;39.80;;;;;;;4.61;85.82;101663.83;103092;1314;97958;-68
2021/11/15 06:18:29;;;;;;;93.40;39.00;;;;;;;4.61;85.81;101669.34;103093;1313;97747;-67
2021/11/15 06:21:01;;;;;;;92.20;39.00;;;;;;;4.61;85.69;101670.71;103073;1314;138763;-68
2021/11/15 06:23:33;;;;;;;90.50;37.30;;;;;;;4.62;85.68;101669.70;103103;1314;108965;-67
2021/11/15 06:26:05;;;;;;;80.90;37.00;;;;;;;4.66;85.81;101674.57;102980;1313;138841;-68
2021/11/15 06:28:39;;;;;;;85.80;38.10;;;;;;;4.69;85.77;101673.77;103146;1313;97987;-67
2021/11/15 06:31:11;;;;;;;90.10;39.00;;;;;;;4.70;85.35;101679.65;103069;1313;138424;-68
2021/11/15 06:33:48;;;;;;;88.50;39.40;;;;;;;4.70;85.22;101681.03;103076;1314;111490;-68
2021/11/15 06:36:22;;;;;;;;;;;;;;;4.66;85.19;101681.12;103114;1313;107859;-68
2021/11/15 06:38:56;;;;;;;86.10;38.20;;;;;;;4.60;85.04;101683.96;104056;1316;124594;-68
2021/11/15 06:41:28;;;;;;;81.10;37.80;;;;;;;4.57;85.08;101688.58;103232;1316;97889;-68
2021/11/15 06:44:00;;;;;;;89.10;38.40;;;;;;;4.57;85.39;101689.79;102979;1315;139628;-68
2021/11/15 06:46:33;;;;;;;80.40;36.60;;;;;;;4.60;85.28;101694.12;103154;1313;112902;-68
2021/11/15 06:49:05;;;;;;;80.80;39.10;;;;;;;4.60;85.08;101691.55;103106;1313;139639;-69
2021/11/15 06:51:42;;;;;;;88.80;38.70;;;;;;;4.59;84.81;101688.08;103181;1313;107894;-68
2021/11/15 06:54:17;;;;;;;89.50;40.10;;;;;;;4.59;85.11;101692.20;102916;1315;97896;-69
2021/11/15 06:56:49;;;;;;;81.10;37.30;;;;;;;4.55;84.54;101693.89;103061;1313;139049;-69
2021/11/15 06:59:22;;;;;;;81.90;38.10;;;;;;;4.51;84.74;101691.77;103210;1314;112549;-68
2021/11/15 07:01:53;;;;;;;78.60;37.40;;;;;;;4.51;84.72;101691.25;103170;1314;139857;-68
2021/11/15 07:04:26;;;;;;;80.20;36.70;;;;;;;4.51;84.53;101694.87;103167;1313;108995;-68
2021/11/15 07:06:58;;;;;;;78.50;37.30;;;;;;;4.53;84.71;101691.80;103063;1313;139774;-68
2021/11/15 07:09:30;;;;;;;74.20;37.10;;;;;;;4.50;84.36;101696.75;103103;1313;98613;-68
2021/11/15 07:12:02;;;;;;;84.10;38.90;;;;;;;4.48;84.48;101697.54;103196;1318;111517;-67
2021/11/15 07:14:34;;;;;;;77.30;37.30;;;;;;;4.47;84.47;101695.48;103141;1313;137889;-67
2021/11/15 07:17:07;;;;;;;76.00;37.00;;;;;;;4.46;84.35;101696.83;103126;1314;108290;-68
2021/11/15 07:19:39;;;;;;;73.60;36.00;;;;;;;4.46;84.43;101693.56;103129;1313;139477;-68
2021/11/15 07:22:33;;;;;;;76.10;35.50;;;;;;;4.48;84.31;101694.45;103072;1310;98617;-68
2021/11/15 07:25:06;;;;;;;79.60;36.90;;;;;;;4.49;84.11;101698.11;102916;1314;138721;-68
2021/11/15 07:27:39;;;;;;;80.40;37.40;;;;;;;4.51;84.26;101696.23;103116;1314;109486;-69
2021/11/15 07:30:12;;;;;;;78.30;37.90;;;;;;;4.53;84.22;101700.76;103092;1313;106788;-67
2021/11/15 07:32:45;;;;;;;76.60;37.40;;;;;;;4.53;83.73;101703.67;104252;1314;137492;-68
2021/11/15 07:35:17;;;;;;;73.90;34.20;;;;;;;4.50;83.72;101698.99;104387;1313;96015;-69
2021/11/15 07:37:50;;;;;;;70.00;35.20;;;;;;;4.48;83.52;101698.75;102910;1313;138665;-68
2021/11/15 07:40:23;;;;;;;73.20;36.60;;;;;;;4.48;83.62;101698.23;103074;1314;108062;-69
2021/11/15 07:42:55;;;;;;;65.30;34.10;;;;;;;4.50;83.66;101694.69;103022;1313;139057;-67
2021/11/15 07:45:27;;;;;;;73.30;35.30;;;;;;;4.53;83.63;101695.42;103196;1318;97847;-68
2021/11/15 07:47:59;;;;;;;70.90;36.20;;;;;;;4.56;83.38;101698.38;103121;1313;97977;-68
2021/11/15 07:50:31;;;;;;;72.10;36.20;;;;;;;4.54;83.00;101697.83;102946;1313;139777;-68
2021/11/15 07:53:03;;;;;;;71.00;33.90;;;;;;;4.51;82.95;101697.96;103069;1313;108453;-69
2021/11/15 07:55:36;;;;;;;63.20;33.40;;;;;;;4.50;83.13;101698.64;102873;1313;138733;-67
2021/11/15 07:58:10;;;;;;;67.30;34.00;;;;;;;4.49;83.01;101698.11;103157;1313;97855;-67
2021/11/15 08:00:43;;;;;;;61.60;32.60;;;;;;;4.51;83.10;101702.27;103008;1317;138556;-68
2021/11/15 08:03:16;;;;;;;66.00;34.40;;;;;;;4.51;82.97;101704.16;103132;1309;113014;-68
2021/11/15 08:05:48;;;;;;;62.60;32.40;;;;;;;4.49;82.89;101711.20;103059;1315;109206;-68
2021/11/15 08:08:20;;;;;;;61.30;32.00;;;;;;;4.46;82.71;101707.68;103060;1313;139955;-70
2021/11/15 08:10:53;;;;;;;57.10;32.00;;;;;;;4.46;82.76;101710.61;103130;1313;97915;-69
2021/11/15 08:13:25;;;;;;;62.30;32.00;;;;;;;4.50;83.06;101707.94;103089;1313;138703;-69
2021/11/15 08:15:57;;;;;;;56.20;31.20;;;;;;;4.55;83.04;101709.21;103137;1313;112551;-69
2021/11/15 08:18:29;;;;;;;65.00;33.30;;;;;;;4.61;82.92;101712.23;103192;1313;109164;-69
2021/11/15 08:21:01;;;;;;;63.10;34.60;;;;;;;4.66;82.95;101716.10;102878;1314;138053;-68
2021/11/15 08:23:34;;;;;;;60.40;32.20;;;;;;;4.69;82.89;101711.52;103004;1313;98586;-68
2021/11/15 08:26:28;;;;;;;61.90;33.60;;;;;;;4.69;82.67;101712.72;102979;1313;138375;-68
2021/11/15 08:29:21;;;;;;;59.30;31.50;;;;;;;4.69;82.47;101711.86;103202;1316;111521;-67
2021/11/15 08:31:55;;;;;;;56.50;30.60;;;;;;;4.69;82.41;101713.23;103122;1313;138721;-68
2021/11/15 08:34:27;;;;;;;56.20;30.60;;;;;;;4.70;82.41;101718.60;103206;1314;107902;-68
2021/11/15 08:36:59;;;;;;;60.80;31.80;;;;;;;4.70;82.24;101722.04;103191;1313;139052;-69
2021/11/15 08:39:32;;;;;;;56.30;29.90;;;;;;;4.67;82.07;101717.48;103235;1313;97910;-68
2021/11/15 08:42:09;;;;;;;52.80;29.00;;;;;;;4.65;82.14;101718.14;103198;1313;112299;-68
2021/11/15 08:44:42;;;;;;;52.80;30.30;;;;;;;4.63;81.97;101719.83;103119;1313;138771;-67
2021/11/15 08:47:14;;;;;;;54.30;29.50;;;;;;;4.58;82.11;101721.31;103094;1314;107913;-67
2021/11/15 08:49:45;;;;;;;51.10;28.80;;;;;;;4.58;82.10;101723.55;103128;1314;138722;-69
2021/11/15 08:52:21;;;;;;;53.10;29.10;;;;;;;4.61;82.40;101726.18;103037;1314;97838;-69
2021/11/15 08:54:54;;;;;;;57.50;31.10;;;;;;;4.65;82.20;101725.21;103017;1313;138043;-69
2021/11/15 08:57:27;;;;;;;50.40;28.90;;;;;;;4.69;82.08;101721.86;103003;1314;109366;-69
2021/11/15 09:00:00;;;;;;;50.20;28.40;;;;;;;4.67;81.73;101718.54;103122;1314;107800;-67
2021/11/15 09:02:32;;;;;;;50.60;28.20;;;;;;;4.65;81.69;101717.46;102930;1314;138801;-69
2021/11/15 09:05:06;;;;;;;47.40;26.40;;;;;;;4.65;81.76;101719.01;103070;1313;97898;-68
2021/11/15 09:07:40;;;;;;;54.80;28.90;;;;;;;4.64;81.66;101714.52;102975;1313;138858;-68
2021/11/15 09:10:14;;;;;;;53.90;28.80;;;;;;;4.63;81.51;101713.81;102902;1314;107742;-68
2021/11/15 09:12:47;;;;;;;52.70;27.90;;;;;;;4.62;81.47;101717.59;102756;1315;137140;-68
2021/11/15 09:15:19;;;;;;;47.10;26.30;;;;;;;4.61;81.42;101720.15;102952;1315;98594;-69
2021/11/15 09:17:52;;;;;;;43.60;25.70;;;;;;;4.60;81.29;101721.69;103102;1313;97772;-70
2021/11/15 09:20:25;;;;;;;44.10;26.00;;;;;;;4.61;81.30;101718.08;103067;1313;138640;-69
2021/11/15 09:22:57;;;;;;;49.80;28.70;;;;;;;4.65;81.48;101719.35;103181;1314;105759;-67
2021/11/15 09:25:30;;;;;;;49.30;28.20;;;;;;;4.67;81.44;101719.73;102677;1313;436635;-70
2021/11/15 09:28:02;;;;;;;47.60;27.10;;;;;;;4.69;81.38;101715.14;103062;1313;97973;-68
2021/11/15 09:30:34;;;;;;;45.40;26.10;;;;;;;4.74;81.18;101714.68;103119;1313;97902;-68
2021/11/15 09:33:08;;;;;;;45.00;25.90;;;;;;;4.74;80.76;101718.65;103743;1313;138543;-68
2021/11/15 09:35:48;;;;;;;48.90;26.90;;;;;;;4.76;80.99;101712.30;103125;1313;109116;-69
2021/11/15 09:38:23;;;;;;;46.30;27.50;;;;;;;4.87;81.35;101719.17;103039;1310;138231;-68
2021/11/15 09:41:00;;;;;;;54.20;27.30;;;;;;;4.92;80.86;101718.22;103087;1314;99407;-67
2021/11/15 09:43:35;;;;;;;54.90;29.40;;;;;;;4.98;80.99;101716.56;102960;1313;139603;-68
2021/11/15 09:46:10;;;;;;;47.80;27.60;;;;;;;5.01;80.96;101714.55;103089;1313;112776;-67
2021/11/15 09:48:45;;;;;;;51.20;27.10;;;;;;;5.05;80.71;101711.34;103240;1314;107914;-68
2021/11/15 09:51:18;;;;;;;47.30;27.10;;;;;;;5.10;80.60;101714.17;102899;1317;139480;-68
2021/11/15 09:53:50;;;;;;;46.50;27.40;;;;;;;5.18;80.79;101710.48;103162;1313;98797;-68
2021/11/15 09:56:23;;;;;;;45.80;25.70;;;;;;;5.24;80.16;101713.66;102970;1313;138487;-69
2021/11/15 09:58:55;;;;;;;46.20;26.60;;;;;;;5.26;79.82;101710.41;103070;1314;112116;-69
2021/11/15 10:01:28;;;;;;;44.70;26.80;;;;;;;5.23;79.62;101706.76;103060;1314;138238;-69
2021/11/15 10:04:00;;;;;;;44.80;26.80;;;;;;;5.17;79.40;101709.41;103140;1313;107947;-68
2021/11/15 10:06:33;;;;;;;43.50;25.20;;;;;;;5.09;79.27;101710.70;103239;1313;97894;-69
2021/11/15 10:09:05;;;;;;;44.20;24.80;;;;;;;5.05;79.48;101708.59;103022;1316;138650;-69
2021/11/15 10:11:45;;;;;;;46.60;26.10;;;;;;;5.02;79.48;101709.91;103204;1313;113373;-68
2021/11/15 10:14:18;;;;;;;44.60;26.40;;;;;;;5.03;79.60;101704.42;103054;1313;138448;-69
2021/11/15 10:16:54;;;;;;;50.30;27.30;;;;;;;5.03;79.75;101705.62;103063;1314;108902;-68
2021/11/15 10:19:27;;;;;;;43.20;24.50;;;;;;;5.02;79.58;101709.23;103003;1315;138312;-69
2021/11/15 10:22:01;;;;;;;43.90;24.40;;;;;;;5.01;79.88;101706.77;103314;1313;97915;-65
2021/11/15 10:24:37;;;;;;;42.20;25.20;;;;;;;5.02;79.78;101709.23;103063;1316;315429;-66
2021/11/15 10:27:12;;;;;;;47.10;24.70;;;;;;;5.03;79.71;101706.33;103240;1313;138459;-65
2021/11/15 10:29:46;;;;;;;46.80;25.40;;;;;;;5.06;80.00;101710.33;103367;1315;109172;-65
2021/11/15 10:32:22;;;;;;;43.70;25.70;;;;;;;5.08;79.76;101713.45;103120;1315;137137;-65
2021/11/15 10:34:58;;;;;;;53.90;28.70;;;;;;;5.09;79.47;101712.77;103172;1312;97855;-65
2021/11/15 10:37:33;;;;;;;58.00;25.60;;;;;;;5.05;79.69;101716.69;103162;1315;139007;-65
2021/11/15 10:40:11;;;;;;;51.40;26.40;;;;;;;5.04;79.68;101713.05;103254;1313;108891;-66
2021/11/15 10:42:46;;;;;;;56.00;25.80;;;;;;;5.05;80.01;101712.03;103237;1313;108931;-66
2021/11/15 10:45:20;;;;;;;54.40;25.70;;;;;;;5.10;79.89;101710.20;103115;1313;138651;-65
2021/11/15 10:47:55;;;;;;;42.70;25.50;;;;;;;5.13;79.90;101716.44;103372;1314;97884;-65
2021/11/15 10:50:44;;;;;;;47.10;26.50;;;;;;;5.13;79.75;101714.02;103006;1311;138597;-65
2021/11/15 10:53:22;;;;;;;48.50;27.90;;;;;;;5.12;79.77;101712.98;103205;1315;109086;-65
2021/11/15 10:56:10;;;;;;;42.70;25.30;;;;;;;5.15;79.84;101713.88;104084;1314;139302;-65
2021/11/15 10:58:46;;;;;;;45.50;25.00;;;;;;;5.17;79.73;101709.59;104544;1314;96159;-64
2021/11/15 11:01:19;;;;;;;39.70;23.70;;;;;;;5.16;79.57;101711.48;104402;1314;139256;-66
2021/11/15 11:04:07;;;;;;;42.20;24.10;;;;;;;5.20;79.84;101711.36;104517;1311;112862;-66
2021/11/15 11:06:56;;;;;;;44.20;25.80;;;;;;;5.28;80.04;101713.55;104648;1313;107991;-66
2021/11/15 11:09:39;;;;;;;46.50;25.80;;;;;;;5.32;79.32;101707.38;104495;1313;139572;-66
2021/11/15 11:12:14;;;;;;;50.50;27.20;;;;;;;5.32;79.33;101709.10;104634;1314;96237;-64
2021/11/15 11:14:49;;;;;;;44.50;25.20;;;;;;;5.31;79.18;101700.98;104484;1313;137934;-65
2021/11/15 11:17:22;;;;;;;39.30;24.00;;;;;;;5.30;79.19;101704.08;103353;1313;112526;-65
2021/11/15 11:20:11;;;;;;;41.20;24.20;;;;;;;5.28;78.90;101704.92;103136;1313;139170;-65
2021/11/15 11:23:16;;;;;;;41.60;24.40;;;;;;;5.31;79.53;101706.16;104590;1314;108733;-65
2021/11/15 11:25:48;;;;;;;39.20;23.90;;;;;;;5.40;79.40;101697.14;103692;1314;139370;-64
2021/11/15 11:28:35;;;;;;;41.00;25.00;;;;;;;5.49;79.76;101693.61;103316;1316;97998;-64
2021/11/15 11:31:11;;;;;;;44.10;25.00;;;;;;;5.56;78.88;101703.00;103244;1312;138181;-65
2021/11/15 11:33:43;;;;;;;44.70;26.00;;;;;;;5.47;78.41;101699.12;103339;1314;108495;-65